sensor_id;sensor_type;location;lat;lon;timestamp;temperature;humidity
12655;DHT22;6392;44.644;11.448;2022-09-09T00:01:43;23.30;99.90
12655;DHT22;6392;44.644;11.448;2022-09-09T00:04:17;23.30;99.90
12655;DHT22;6392;44.644;11.448;2022-09-09T00:06:53;23.10;99.90
12655;DHT22;6392;44.644;11.448;2022-09-09T00:09:25;23.00;99.90
12655;DHT22;6392;44.644;11.448;2022-09-09T00:11:58;23.00;99.90
12655;DHT22;6392;44.644;11.448;2022-09-09T00:14:37;23.00;99.90
12655;DHT22;6392;44.644;11.448;2022-09-09T00:17:09;22.90;99.90
12655;DHT22;6392;44.644;11.448;2022-09-09T00:19:43;22.70;99.90
12655;DHT22;6392;44.644;11.448;2022-09-09T00:22:17;22.60;99.90
12655;DHT22;6392;44.644;11.448;2022-09-09T00:24:47;22.40;99.90
12655;DHT22;6392;44.644;11.448;2022-09-09T00:27:21;22.20;99.90
12655;DHT22;6392;44.644;11.448;2022-09-09T00:29:56;22.10;99.90
12655;DHT22;6392;44.644;11.448;2022-09-09T00:32:29;22.10;99.90
12655;DHT22;6392;44.644;11.448;2022-09-09T00:34:59;22.00;99.90
12655;DHT22;6392;44.644;11.448;2022-09-09T00:37:26;21.90;99.90
12655;DHT22;6392;44.644;11.448;2022-09-09T00:39:59;21.90;99.90
12655;DHT22;6392;44.644;11.448;2022-09-09T00:42:35;21.90;99.90
12655;DHT22;6392;44.644;11.448;2022-09-09T00:45:19;21.90;99.90
12655;DHT22;6392;44.644;11.448;2022-09-09T00:47:51;21.90;99.90
12655;DHT22;6392;44.644;11.448;2022-09-09T00:50:39;21.90;99.90
12655;DHT22;6392;44.644;11.448;2022-09-09T00:53:19;21.80;99.90
12655;DHT22;6392;44.644;11.448;2022-09-09T00:55:54;21.70;99.90
12655;DHT22;6392;44.644;11.448;2022-09-09T00:58:26;21.70;99.90
12655;DHT22;6392;44.644;11.448;2022-09-09T01:00:59;21.70;99.90
12655;DHT22;6392;44.644;11.448;2022-09-09T01:03:35;21.60;99.90
12655;DHT22;6392;44.644;11.448;2022-09-09T01:06:13;21.50;99.90
12655;DHT22;6392;44.644;11.448;2022-09-09T01:09:04;21.40;99.90
12655;DHT22;6392;44.644;11.448;2022-09-09T01:11:43;21.30;99.90
12655;DHT22;6392;44.644;11.448;2022-09-09T01:14:20;21.30;99.90
12655;DHT22;6392;44.644;11.448;2022-09-09T01:16:54;21.20;99.90
12655;DHT22;6392;44.644;11.448;2022-09-09T01:19:32;21.20;99.90
12655;DHT22;6392;44.644;11.448;2022-09-09T01:22:11;21.10;99.90
12655;DHT22;6392;44.644;11.448;2022-09-09T01:24:45;21.10;99.90
12655;DHT22;6392;44.644;11.448;2022-09-09T01:27:17;21.00;99.90
12655;DHT22;6392;44.644;11.448;2022-09-09T01:29:45;21.10;99.90
12655;DHT22;6392;44.644;11.448;2022-09-09T01:32:39;21.10;99.90
12655;DHT22;6392;44.644;11.448;2022-09-09T01:35:11;21.00;99.90
12655;DHT22;6392;44.644;11.448;2022-09-09T01:37:39;21.00;99.90
12655;DHT22;6392;44.644;11.448;2022-09-09T01:40:08;20.90;99.90
12655;DHT22;6392;44.644;11.448;2022-09-09T01:42:37;21.00;99.90
12655;DHT22;6392;44.644;11.448;2022-09-09T01:45:04;20.90;99.90
12655;DHT22;6392;44.644;11.448;2022-09-09T01:47:32;20.90;99.90
12655;DHT22;6392;44.644;11.448;2022-09-09T01:49:59;20.90;99.90
12655;DHT22;6392;44.644;11.448;2022-09-09T01:52:28;20.80;99.90
12655;DHT22;6392;44.644;11.448;2022-09-09T01:54:56;20.70;99.90
12655;DHT22;6392;44.644;11.448;2022-09-09T01:57:33;20.60;99.90
12655;DHT22;6392;44.644;11.448;2022-09-09T02:00:05;20.50;99.90
12655;DHT22;6392;44.644;11.448;2022-09-09T02:02:38;20.40;99.90
12655;DHT22;6392;44.644;11.448;2022-09-09T02:05:13;20.30;99.90
12655;DHT22;6392;44.644;11.448;2022-09-09T02:07:47;20.30;99.90
12655;DHT22;6392;44.644;11.448;2022-09-09T02:10:17;20.30;99.90
12655;DHT22;6392;44.644;11.448;2022-09-09T02:12:49;20.40;99.90
12655;DHT22;6392;44.644;11.448;2022-09-09T02:15:22;20.40;99.90
12655;DHT22;6392;44.644;11.448;2022-09-09T02:17:52;20.40;99.90
12655;DHT22;6392;44.644;11.448;2022-09-09T02:20:21;20.40;99.90
12655;DHT22;6392;44.644;11.448;2022-09-09T02:22:50;20.30;99.90
12655;DHT22;6392;44.644;11.448;2022-09-09T02:25:21;20.30;99.90
12655;DHT22;6392;44.644;11.448;2022-09-09T02:27:50;20.30;99.90
12655;DHT22;6392;44.644;11.448;2022-09-09T02:30:20;20.10;99.90
12655;DHT22;6392;44.644;11.448;2022-09-09T02:32:49;20.10;99.90
12655;DHT22;6392;44.644;11.448;2022-09-09T02:35:20;19.90;99.90
12655;DHT22;6392;44.644;11.448;2022-09-09T02:37:51;20.00;99.90
12655;DHT22;6392;44.644;11.448;2022-09-09T02:40:18;20.00;99.90
12655;DHT22;6392;44.644;11.448;2022-09-09T02:42:47;20.00;99.90
12655;DHT22;6392;44.644;11.448;2022-09-09T02:45:17;20.00;99.90
12655;DHT22;6392;44.644;11.448;2022-09-09T02:47:50;20.00;99.90
12655;DHT22;6392;44.644;11.448;2022-09-09T02:50:23;20.10;99.90
12655;DHT22;6392;44.644;11.448;2022-09-09T02:53:01;20.20;99.90
12655;DHT22;6392;44.644;11.448;2022-09-09T02:55:38;20.20;99.90
12655;DHT22;6392;44.644;11.448;2022-09-09T02:58:10;20.30;99.90
12655;DHT22;6392;44.644;11.448;2022-09-09T03:00:39;20.30;99.90
12655;DHT22;6392;44.644;11.448;2022-09-09T03:03:08;20.30;99.90
12655;DHT22;6392;44.644;11.448;2022-09-09T03:05:35;20.10;99.90
12655;DHT22;6392;44.644;11.448;2022-09-09T03:08:03;19.90;99.90
12655;DHT22;6392;44.644;11.448;2022-09-09T03:10:31;19.90;99.90
12655;DHT22;6392;44.644;11.448;2022-09-09T03:12:58;20.00;99.90
12655;DHT22;6392;44.644;11.448;2022-09-09T03:15:25;20.00;99.90
12655;DHT22;6392;44.644;11.448;2022-09-09T03:17:54;19.80;99.90
12655;DHT22;6392;44.644;11.448;2022-09-09T03:20:24;19.60;99.90
12655;DHT22;6392;44.644;11.448;2022-09-09T03:22:51;19.60;99.90
12655;DHT22;6392;44.644;11.448;2022-09-09T03:25:19;19.70;99.90
12655;DHT22;6392;44.644;11.448;2022-09-09T03:27:46;19.70;99.90
12655;DHT22;6392;44.644;11.448;2022-09-09T03:30:13;19.70;99.90
12655;DHT22;6392;44.644;11.448;2022-09-09T03:32:40;19.70;99.90
12655;DHT22;6392;44.644;11.448;2022-09-09T03:35:08;19.70;99.90
12655;DHT22;6392;44.644;11.448;2022-09-09T03:37:36;19.90;99.90
12655;DHT22;6392;44.644;11.448;2022-09-09T03:40:05;19.80;99.90
12655;DHT22;6392;44.644;11.448;2022-09-09T03:42:32;19.80;99.90
12655;DHT22;6392;44.644;11.448;2022-09-09T03:44:59;19.80;99.90
12655;DHT22;6392;44.644;11.448;2022-09-09T03:47:26;19.80;99.90
12655;DHT22;6392;44.644;11.448;2022-09-09T03:49:54;19.80;99.90
12655;DHT22;6392;44.644;11.448;2022-09-09T03:52:21;19.80;99.90
12655;DHT22;6392;44.644;11.448;2022-09-09T03:54:52;19.80;99.90
12655;DHT22;6392;44.644;11.448;2022-09-09T03:57:19;19.80;99.90
12655;DHT22;6392;44.644;11.448;2022-09-09T03:59:46;19.80;99.90
12655;DHT22;6392;44.644;11.448;2022-09-09T04:02:13;19.90;99.90
12655;DHT22;6392;44.644;11.448;2022-09-09T04:04:41;19.90;99.90
12655;DHT22;6392;44.644;11.448;2022-09-09T04:07:08;19.90;99.90
12655;DHT22;6392;44.644;11.448;2022-09-09T04:09:34;19.90;99.90
12655;DHT22;6392;44.644;11.448;2022-09-09T04:12:03;19.90;99.90
12655;DHT22;6392;44.644;11.448;2022-09-09T04:14:31;19.80;99.90
12655;DHT22;6392;44.644;11.448;2022-09-09T04:16:58;19.80;99.90
12655;DHT22;6392;44.644;11.448;2022-09-09T04:19:25;19.80;99.90
12655;DHT22;6392;44.644;11.448;2022-09-09T04:21:52;19.70;99.90
12655;DHT22;6392;44.644;11.448;2022-09-09T04:24:19;19.70;99.90
12655;DHT22;6392;44.644;11.448;2022-09-09T04:26:47;19.70;99.90
12655;DHT22;6392;44.644;11.448;2022-09-09T04:29:16;19.70;99.90
12655;DHT22;6392;44.644;11.448;2022-09-09T04:31:42;19.70;99.90
12655;DHT22;6392;44.644;11.448;2022-09-09T04:34:10;19.60;99.90
12655;DHT22;6392;44.644;11.448;2022-09-09T04:36:37;19.50;99.90
12655;DHT22;6392;44.644;11.448;2022-09-09T04:39:04;19.50;99.90
12655;DHT22;6392;44.644;11.448;2022-09-09T04:41:32;19.50;99.90
12655;DHT22;6392;44.644;11.448;2022-09-09T04:43:59;19.60;99.90
12655;DHT22;6392;44.644;11.448;2022-09-09T04:46:27;19.60;99.90
12655;DHT22;6392;44.644;11.448;2022-09-09T04:48:54;19.60;99.90
12655;DHT22;6392;44.644;11.448;2022-09-09T04:51:21;19.70;99.90
12655;DHT22;6392;44.644;11.448;2022-09-09T04:53:48;19.70;99.90
12655;DHT22;6392;44.644;11.448;2022-09-09T04:56:17;19.70;99.90
12655;DHT22;6392;44.644;11.448;2022-09-09T04:58:44;19.60;99.90
12655;DHT22;6392;44.644;11.448;2022-09-09T05:01:13;19.50;99.90
12655;DHT22;6392;44.644;11.448;2022-09-09T05:03:42;19.40;99.90
12655;DHT22;6392;44.644;11.448;2022-09-09T05:06:12;19.40;99.90
12655;DHT22;6392;44.644;11.448;2022-09-09T05:08:40;19.40;99.90
12655;DHT22;6392;44.644;11.448;2022-09-09T05:11:14;19.50;99.90
12655;DHT22;6392;44.644;11.448;2022-09-09T05:13:42;19.50;99.90
12655;DHT22;6392;44.644;11.448;2022-09-09T05:16:09;19.60;99.90
12655;DHT22;6392;44.644;11.448;2022-09-09T05:18:37;19.60;99.90
12655;DHT22;6392;44.644;11.448;2022-09-09T05:21:06;19.70;99.90
12655;DHT22;6392;44.644;11.448;2022-09-09T05:23:33;19.80;99.90
12655;DHT22;6392;44.644;11.448;2022-09-09T05:26:02;19.80;99.90
12655;DHT22;6392;44.644;11.448;2022-09-09T05:28:29;19.90;99.90
12655;DHT22;6392;44.644;11.448;2022-09-09T05:30:57;20.00;99.90
12655;DHT22;6392;44.644;11.448;2022-09-09T05:33:26;20.00;99.90
12655;DHT22;6392;44.644;11.448;2022-09-09T05:35:57;20.10;99.90
12655;DHT22;6392;44.644;11.448;2022-09-09T05:38:26;20.20;99.90
12655;DHT22;6392;44.644;11.448;2022-09-09T05:40:53;20.30;99.90
12655;DHT22;6392;44.644;11.448;2022-09-09T05:43:20;20.30;99.90
12655;DHT22;6392;44.644;11.448;2022-09-09T05:45:48;20.40;99.90
12655;DHT22;6392;44.644;11.448;2022-09-09T05:48:16;20.40;99.90
12655;DHT22;6392;44.644;11.448;2022-09-09T05:50:52;20.50;99.90
12655;DHT22;6392;44.644;11.448;2022-09-09T05:53:19;20.60;99.90
12655;DHT22;6392;44.644;11.448;2022-09-09T05:55:48;20.60;99.90
12655;DHT22;6392;44.644;11.448;2022-09-09T05:58:15;20.70;99.90
12655;DHT22;6392;44.644;11.448;2022-09-09T06:00:43;20.70;99.90
12655;DHT22;6392;44.644;11.448;2022-09-09T06:03:11;20.80;99.90
12655;DHT22;6392;44.644;11.448;2022-09-09T06:05:38;20.80;99.90
12655;DHT22;6392;44.644;11.448;2022-09-09T06:08:05;20.80;99.90
12655;DHT22;6392;44.644;11.448;2022-09-09T06:10:33;20.80;99.90
12655;DHT22;6392;44.644;11.448;2022-09-09T06:13:01;20.70;99.90
12655;DHT22;6392;44.644;11.448;2022-09-09T06:15:28;20.70;99.90
12655;DHT22;6392;44.644;11.448;2022-09-09T06:17:56;20.70;99.90
12655;DHT22;6392;44.644;11.448;2022-09-09T06:20:23;20.70;99.90
12655;DHT22;6392;44.644;11.448;2022-09-09T06:22:50;20.70;99.90
12655;DHT22;6392;44.644;11.448;2022-09-09T06:25:17;20.80;99.90
12655;DHT22;6392;44.644;11.448;2022-09-09T06:27:48;20.80;99.90
12655;DHT22;6392;44.644;11.448;2022-09-09T06:30:18;20.80;99.90
12655;DHT22;6392;44.644;11.448;2022-09-09T06:32:45;20.90;99.90
12655;DHT22;6392;44.644;11.448;2022-09-09T06:35:12;20.90;99.90
12655;DHT22;6392;44.644;11.448;2022-09-09T06:37:39;20.90;99.90
12655;DHT22;6392;44.644;11.448;2022-09-09T06:40:07;20.90;99.90
12655;DHT22;6392;44.644;11.448;2022-09-09T06:42:34;20.90;99.90
12655;DHT22;6392;44.644;11.448;2022-09-09T06:45:01;21.00;99.90
12655;DHT22;6392;44.644;11.448;2022-09-09T06:47:29;21.00;99.90
12655;DHT22;6392;44.644;11.448;2022-09-09T06:49:57;21.00;99.90
12655;DHT22;6392;44.644;11.448;2022-09-09T06:52:24;21.00;99.90
12655;DHT22;6392;44.644;11.448;2022-09-09T06:54:51;21.10;99.90
12655;DHT22;6392;44.644;11.448;2022-09-09T06:57:19;21.10;99.90
12655;DHT22;6392;44.644;11.448;2022-09-09T06:59:46;21.20;99.90
12655;DHT22;6392;44.644;11.448;2022-09-09T07:02:13;21.30;99.90
12655;DHT22;6392;44.644;11.448;2022-09-09T07:04:42;21.30;99.90
12655;DHT22;6392;44.644;11.448;2022-09-09T07:07:09;21.40;99.90
12655;DHT22;6392;44.644;11.448;2022-09-09T07:09:39;21.30;99.90
12655;DHT22;6392;44.644;11.448;2022-09-09T07:12:06;21.40;99.90
12655;DHT22;6392;44.644;11.448;2022-09-09T07:14:33;21.50;99.90
12655;DHT22;6392;44.644;11.448;2022-09-09T07:17:03;21.50;99.90
12655;DHT22;6392;44.644;11.448;2022-09-09T07:19:30;21.50;99.90
12655;DHT22;6392;44.644;11.448;2022-09-09T07:21:58;21.60;99.90
12655;DHT22;6392;44.644;11.448;2022-09-09T07:24:25;21.70;99.90
12655;DHT22;6392;44.644;11.448;2022-09-09T07:26:56;21.70;99.90
12655;DHT22;6392;44.644;11.448;2022-09-09T07:29:23;21.70;99.90
12655;DHT22;6392;44.644;11.448;2022-09-09T07:31:50;21.80;99.90
12655;DHT22;6392;44.644;11.448;2022-09-09T07:34:17;21.80;99.90
12655;DHT22;6392;44.644;11.448;2022-09-09T07:36:44;21.80;99.90
12655;DHT22;6392;44.644;11.448;2022-09-09T07:39:14;21.90;99.90
12655;DHT22;6392;44.644;11.448;2022-09-09T07:41:44;22.00;99.90
12655;DHT22;6392;44.644;11.448;2022-09-09T07:44:14;22.00;99.90
12655;DHT22;6392;44.644;11.448;2022-09-09T07:46:42;21.90;99.90
12655;DHT22;6392;44.644;11.448;2022-09-09T07:49:10;21.90;99.90
12655;DHT22;6392;44.644;11.448;2022-09-09T07:51:39;22.00;99.90
12655;DHT22;6392;44.644;11.448;2022-09-09T07:54:09;22.10;99.90
12655;DHT22;6392;44.644;11.448;2022-09-09T07:56:38;22.20;99.90
12655;DHT22;6392;44.644;11.448;2022-09-09T07:59:06;22.20;99.90
12655;DHT22;6392;44.644;11.448;2022-09-09T08:01:36;22.20;99.90
12655;DHT22;6392;44.644;11.448;2022-09-09T08:04:06;22.20;99.90
12655;DHT22;6392;44.644;11.448;2022-09-09T08:06:38;22.20;99.90
12655;DHT22;6392;44.644;11.448;2022-09-09T08:09:06;22.10;99.90
12655;DHT22;6392;44.644;11.448;2022-09-09T08:11:34;22.10;99.90
12655;DHT22;6392;44.644;11.448;2022-09-09T08:14:03;22.20;99.90
12655;DHT22;6392;44.644;11.448;2022-09-09T08:16:32;22.20;99.90
12655;DHT22;6392;44.644;11.448;2022-09-09T08:19:00;22.20;99.90
12655;DHT22;6392;44.644;11.448;2022-09-09T08:21:29;22.20;99.90
12655;DHT22;6392;44.644;11.448;2022-09-09T08:24:00;22.30;99.90
12655;DHT22;6392;44.644;11.448;2022-09-09T08:26:29;22.40;99.90
12655;DHT22;6392;44.644;11.448;2022-09-09T08:28:57;22.40;99.90
12655;DHT22;6392;44.644;11.448;2022-09-09T08:31:27;22.50;99.90
12655;DHT22;6392;44.644;11.448;2022-09-09T08:33:55;22.50;99.90
12655;DHT22;6392;44.644;11.448;2022-09-09T08:36:24;22.60;99.90
12655;DHT22;6392;44.644;11.448;2022-09-09T08:38:54;22.60;99.90
12655;DHT22;6392;44.644;11.448;2022-09-09T08:41:52;22.70;99.90
12655;DHT22;6392;44.644;11.448;2022-09-09T08:44:31;22.70;99.90
12655;DHT22;6392;44.644;11.448;2022-09-09T08:47:11;22.70;99.90
12655;DHT22;6392;44.644;11.448;2022-09-09T08:52:38;22.90;99.90
12655;DHT22;6392;44.644;11.448;2022-09-09T08:55:19;22.90;99.90
12655;DHT22;6392;44.644;11.448;2022-09-09T08:57:49;22.90;99.90
12655;DHT22;6392;44.644;11.448;2022-09-09T09:00:17;23.00;99.90
12655;DHT22;6392;44.644;11.448;2022-09-09T09:02:53;23.10;99.90
12655;DHT22;6392;44.644;11.448;2022-09-09T09:05:27;23.20;99.90
12655;DHT22;6392;44.644;11.448;2022-09-09T09:08:03;23.40;99.90
12655;DHT22;6392;44.644;11.448;2022-09-09T09:10:45;23.40;99.90
12655;DHT22;6392;44.644;11.448;2022-09-09T09:13:15;23.50;99.90
12655;DHT22;6392;44.644;11.448;2022-09-09T09:15:45;23.60;99.90
12655;DHT22;6392;44.644;11.448;2022-09-09T09:18:15;23.60;99.90
12655;DHT22;6392;44.644;11.448;2022-09-09T09:20:54;23.50;99.90
12655;DHT22;6392;44.644;11.448;2022-09-09T09:23:25;23.50;99.90
12655;DHT22;6392;44.644;11.448;2022-09-09T09:25:59;23.60;99.90
12655;DHT22;6392;44.644;11.448;2022-09-09T09:28:28;23.70;99.90
12655;DHT22;6392;44.644;11.448;2022-09-09T09:30:59;23.80;99.90
12655;DHT22;6392;44.644;11.448;2022-09-09T09:33:33;23.80;99.90
12655;DHT22;6392;44.644;11.448;2022-09-09T09:36:02;23.90;99.90
12655;DHT22;6392;44.644;11.448;2022-09-09T09:38:34;23.90;99.90
12655;DHT22;6392;44.644;11.448;2022-09-09T09:41:02;24.00;99.90
12655;DHT22;6392;44.644;11.448;2022-09-09T09:43:30;23.90;99.90
12655;DHT22;6392;44.644;11.448;2022-09-09T09:45:58;24.00;99.90
12655;DHT22;6392;44.644;11.448;2022-09-09T09:48:26;24.10;99.90
12655;DHT22;6392;44.644;11.448;2022-09-09T09:50:57;24.10;99.90
12655;DHT22;6392;44.644;11.448;2022-09-09T09:53:27;24.30;99.90
12655;DHT22;6392;44.644;11.448;2022-09-09T09:55:58;24.30;99.90
12655;DHT22;6392;44.644;11.448;2022-09-09T09:58:27;24.30;99.90
12655;DHT22;6392;44.644;11.448;2022-09-09T10:01:00;24.30;99.90
12655;DHT22;6392;44.644;11.448;2022-09-09T10:03:29;24.40;99.90
12655;DHT22;6392;44.644;11.448;2022-09-09T10:05:58;24.50;99.90
12655;DHT22;6392;44.644;11.448;2022-09-09T10:08:27;24.50;99.90
12655;DHT22;6392;44.644;11.448;2022-09-09T10:11:15;24.60;99.90
12655;DHT22;6392;44.644;11.448;2022-09-09T10:13:52;24.80;99.90
12655;DHT22;6392;44.644;11.448;2022-09-09T10:16:38;24.80;99.90
12655;DHT22;6392;44.644;11.448;2022-09-09T10:19:13;24.80;99.90
12655;DHT22;6392;44.644;11.448;2022-09-09T10:22:04;24.90;99.90
12655;DHT22;6392;44.644;11.448;2022-09-09T10:27:33;25.10;99.90
12655;DHT22;6392;44.644;11.448;2022-09-09T10:30:14;25.20;99.90
12655;DHT22;6392;44.644;11.448;2022-09-09T10:32:48;25.50;99.90
12655;DHT22;6392;44.644;11.448;2022-09-09T10:35:27;25.60;99.90
12655;DHT22;6392;44.644;11.448;2022-09-09T10:38:17;25.40;99.90
12655;DHT22;6392;44.644;11.448;2022-09-09T10:41:26;25.50;99.90
12655;DHT22;6392;44.644;11.448;2022-09-09T10:44:17;25.60;99.90
12655;DHT22;6392;44.644;11.448;2022-09-09T10:47:00;25.60;99.90
12655;DHT22;6392;44.644;11.448;2022-09-09T10:49:49;25.50;99.90
12655;DHT22;6392;44.644;11.448;2022-09-09T10:52:24;25.50;99.90
12655;DHT22;6392;44.644;11.448;2022-09-09T10:55:02;25.70;99.90
12655;DHT22;6392;44.644;11.448;2022-09-09T10:57:36;25.80;99.90
12655;DHT22;6392;44.644;11.448;2022-09-09T11:00:15;25.90;99.90
12655;DHT22;6392;44.644;11.448;2022-09-09T11:02:43;26.10;99.90
12655;DHT22;6392;44.644;11.448;2022-09-09T11:05:16;26.30;99.90
12655;DHT22;6392;44.644;11.448;2022-09-09T11:07:48;26.30;99.90
12655;DHT22;6392;44.644;11.448;2022-09-09T11:10:24;26.20;99.90
12655;DHT22;6392;44.644;11.448;2022-09-09T11:12:55;26.30;99.90
12655;DHT22;6392;44.644;11.448;2022-09-09T11:15:28;26.50;99.90
12655;DHT22;6392;44.644;11.448;2022-09-09T11:18:01;26.50;99.90
12655;DHT22;6392;44.644;11.448;2022-09-09T11:20:28;26.50;99.90
12655;DHT22;6392;44.644;11.448;2022-09-09T11:22:59;26.70;99.90
12655;DHT22;6392;44.644;11.448;2022-09-09T11:25:31;26.70;99.90
12655;DHT22;6392;44.644;11.448;2022-09-09T11:28:24;26.60;99.90
12655;DHT22;6392;44.644;11.448;2022-09-09T11:31:06;26.40;99.90
12655;DHT22;6392;44.644;11.448;2022-09-09T11:33:50;26.40;99.90
12655;DHT22;6392;44.644;11.448;2022-09-09T11:39:41;26.60;99.90
12655;DHT22;6392;44.644;11.448;2022-09-09T11:42:19;26.80;99.90
12655;DHT22;6392;44.644;11.448;2022-09-09T11:44:46;26.70;99.90
12655;DHT22;6392;44.644;11.448;2022-09-09T11:47:21;26.80;99.90
12655;DHT22;6392;44.644;11.448;2022-09-09T11:49:50;26.80;99.90
12655;DHT22;6392;44.644;11.448;2022-09-09T11:52:22;26.70;99.90
12655;DHT22;6392;44.644;11.448;2022-09-09T11:54:51;26.50;99.90
12655;DHT22;6392;44.644;11.448;2022-09-09T11:57:26;26.50;99.90
12655;DHT22;6392;44.644;11.448;2022-09-09T11:59:57;26.70;99.90
12655;DHT22;6392;44.644;11.448;2022-09-09T12:02:26;26.50;99.90
12655;DHT22;6392;44.644;11.448;2022-09-09T12:05:00;26.50;99.90
12655;DHT22;6392;44.644;11.448;2022-09-09T12:07:34;26.60;99.90
12655;DHT22;6392;44.644;11.448;2022-09-09T12:10:05;26.70;99.90
12655;DHT22;6392;44.644;11.448;2022-09-09T12:12:47;26.80;99.90
12655;DHT22;6392;44.644;11.448;2022-09-09T12:15:20;26.90;99.90
12655;DHT22;6392;44.644;11.448;2022-09-09T12:17:49;26.90;99.90
12655;DHT22;6392;44.644;11.448;2022-09-09T12:20:19;27.00;99.90
12655;DHT22;6392;44.644;11.448;2022-09-09T12:23:04;27.10;99.90
12655;DHT22;6392;44.644;11.448;2022-09-09T12:25:47;27.30;99.90
12655;DHT22;6392;44.644;11.448;2022-09-09T12:28:18;27.30;99.90
12655;DHT22;6392;44.644;11.448;2022-09-09T12:30:53;27.40;99.90
12655;DHT22;6392;44.644;11.448;2022-09-09T12:33:22;27.50;99.90
12655;DHT22;6392;44.644;11.448;2022-09-09T12:35:54;27.50;99.90
12655;DHT22;6392;44.644;11.448;2022-09-09T12:38:29;27.60;99.90
12655;DHT22;6392;44.644;11.448;2022-09-09T12:40:59;27.70;99.90
12655;DHT22;6392;44.644;11.448;2022-09-09T12:43:28;27.80;99.90
12655;DHT22;6392;44.644;11.448;2022-09-09T12:45:57;27.80;99.90
12655;DHT22;6392;44.644;11.448;2022-09-09T12:48:33;27.80;99.90
12655;DHT22;6392;44.644;11.448;2022-09-09T12:51:02;27.90;99.90
12655;DHT22;6392;44.644;11.448;2022-09-09T12:53:33;27.90;99.90
12655;DHT22;6392;44.644;11.448;2022-09-09T12:56:03;27.90;99.90
12655;DHT22;6392;44.644;11.448;2022-09-09T12:58:36;28.00;99.90
12655;DHT22;6392;44.644;11.448;2022-09-09T13:01:06;28.10;99.90
12655;DHT22;6392;44.644;11.448;2022-09-09T13:03:42;28.10;99.90
12655;DHT22;6392;44.644;11.448;2022-09-09T13:06:19;28.00;99.90
12655;DHT22;6392;44.644;11.448;2022-09-09T13:08:48;27.80;99.90
12655;DHT22;6392;44.644;11.448;2022-09-09T13:11:18;27.60;99.90
12655;DHT22;6392;44.644;11.448;2022-09-09T13:13:52;27.60;99.90
12655;DHT22;6392;44.644;11.448;2022-09-09T13:16:22;27.20;99.90
12655;DHT22;6392;44.644;11.448;2022-09-09T13:18:49;26.60;99.90
12655;DHT22;6392;44.644;11.448;2022-09-09T13:21:18;26.30;99.90
12655;DHT22;6392;44.644;11.448;2022-09-09T13:23:49;26.20;99.90
12655;DHT22;6392;44.644;11.448;2022-09-09T13:26:23;26.10;99.90
12655;DHT22;6392;44.644;11.448;2022-09-09T13:28:53;26.10;99.90
12655;DHT22;6392;44.644;11.448;2022-09-09T13:31:22;26.20;99.90
12655;DHT22;6392;44.644;11.448;2022-09-09T13:33:49;26.10;99.90
12655;DHT22;6392;44.644;11.448;2022-09-09T13:36:27;26.20;99.90
12655;DHT22;6392;44.644;11.448;2022-09-09T13:38:57;26.60;99.90
12655;DHT22;6392;44.644;11.448;2022-09-09T13:41:28;26.70;99.90
12655;DHT22;6392;44.644;11.448;2022-09-09T13:43:58;26.60;99.90
12655;DHT22;6392;44.644;11.448;2022-09-09T13:46:30;26.30;99.90
12655;DHT22;6392;44.644;11.448;2022-09-09T13:48:59;26.10;99.90
12655;DHT22;6392;44.644;11.448;2022-09-09T13:51:32;26.20;99.90
12655;DHT22;6392;44.644;11.448;2022-09-09T13:54:00;26.20;99.90
12655;DHT22;6392;44.644;11.448;2022-09-09T13:56:28;26.20;99.90
12655;DHT22;6392;44.644;11.448;2022-09-09T13:58:56;26.30;99.90
12655;DHT22;6392;44.644;11.448;2022-09-09T14:01:24;26.20;99.90
12655;DHT22;6392;44.644;11.448;2022-09-09T14:03:51;26.10;99.90
12655;DHT22;6392;44.644;11.448;2022-09-09T14:06:18;26.10;99.90
12655;DHT22;6392;44.644;11.448;2022-09-09T14:08:47;26.10;99.90
12655;DHT22;6392;44.644;11.448;2022-09-09T14:11:17;26.10;99.90
12655;DHT22;6392;44.644;11.448;2022-09-09T14:13:44;26.10;99.90
12655;DHT22;6392;44.644;11.448;2022-09-09T14:16:14;26.10;99.90
12655;DHT22;6392;44.644;11.448;2022-09-09T14:18:41;26.10;99.90
12655;DHT22;6392;44.644;11.448;2022-09-09T14:21:08;26.00;99.90
12655;DHT22;6392;44.644;11.448;2022-09-09T14:23:36;26.00;99.90
12655;DHT22;6392;44.644;11.448;2022-09-09T14:26:03;25.90;99.90
12655;DHT22;6392;44.644;11.448;2022-09-09T14:28:31;26.00;99.90
12655;DHT22;6392;44.644;11.448;2022-09-09T14:30:59;25.90;99.90
12655;DHT22;6392;44.644;11.448;2022-09-09T14:33:28;26.10;99.90
12655;DHT22;6392;44.644;11.448;2022-09-09T14:35:56;26.40;99.90
12655;DHT22;6392;44.644;11.448;2022-09-09T14:38:24;26.10;99.90
12655;DHT22;6392;44.644;11.448;2022-09-09T14:40:51;26.10;99.90
12655;DHT22;6392;44.644;11.448;2022-09-09T14:43:18;26.10;99.90
12655;DHT22;6392;44.644;11.448;2022-09-09T14:45:45;26.00;99.90
12655;DHT22;6392;44.644;11.448;2022-09-09T14:48:13;25.90;99.90
12655;DHT22;6392;44.644;11.448;2022-09-09T14:50:42;25.90;99.90
12655;DHT22;6392;44.644;11.448;2022-09-09T14:53:09;25.80;99.90
12655;DHT22;6392;44.644;11.448;2022-09-09T14:55:36;25.90;99.90
12655;DHT22;6392;44.644;11.448;2022-09-09T14:58:03;26.00;99.90
12655;DHT22;6392;44.644;11.448;2022-09-09T15:00:31;26.00;99.90
12655;DHT22;6392;44.644;11.448;2022-09-09T15:02:58;26.00;99.90
12655;DHT22;6392;44.644;11.448;2022-09-09T15:05:25;26.00;99.90
12655;DHT22;6392;44.644;11.448;2022-09-09T15:07:55;26.10;99.90
12655;DHT22;6392;44.644;11.448;2022-09-09T15:10:22;26.10;99.90
12655;DHT22;6392;44.644;11.448;2022-09-09T15:12:49;26.10;99.90
12655;DHT22;6392;44.644;11.448;2022-09-09T15:15:16;26.00;99.90
12655;DHT22;6392;44.644;11.448;2022-09-09T15:17:43;26.20;99.90
12655;DHT22;6392;44.644;11.448;2022-09-09T15:20:10;26.30;99.90
12655;DHT22;6392;44.644;11.448;2022-09-09T15:22:37;26.30;99.90
12655;DHT22;6392;44.644;11.448;2022-09-09T15:25:07;26.40;99.90
12655;DHT22;6392;44.644;11.448;2022-09-09T15:27:34;26.40;99.90
12655;DHT22;6392;44.644;11.448;2022-09-09T15:30:02;26.10;99.90
12655;DHT22;6392;44.644;11.448;2022-09-09T15:32:29;26.00;99.90
12655;DHT22;6392;44.644;11.448;2022-09-09T15:34:58;26.00;99.90
12655;DHT22;6392;44.644;11.448;2022-09-09T15:37:25;25.90;99.90
12655;DHT22;6392;44.644;11.448;2022-09-09T15:39:52;26.00;99.90
12655;DHT22;6392;44.644;11.448;2022-09-09T15:42:20;25.90;99.90
12655;DHT22;6392;44.644;11.448;2022-09-09T15:44:47;25.90;99.90
12655;DHT22;6392;44.644;11.448;2022-09-09T15:47:14;25.90;99.90
12655;DHT22;6392;44.644;11.448;2022-09-09T15:49:42;25.90;99.90
12655;DHT22;6392;44.644;11.448;2022-09-09T15:52:10;26.00;99.90
12655;DHT22;6392;44.644;11.448;2022-09-09T15:54:37;26.10;99.90
12655;DHT22;6392;44.644;11.448;2022-09-09T15:57:07;26.10;99.90
12655;DHT22;6392;44.644;11.448;2022-09-09T15:59:36;26.20;99.90
12655;DHT22;6392;44.644;11.448;2022-09-09T16:02:03;26.40;99.90